createdAt,value
2017-11-21T00:02:00.037Z,8.08
2017-11-21T00:04:27.548Z,8.12
2017-11-21T00:06:55.015Z,8.11
2017-11-21T00:09:22.494Z,8.07
2017-11-21T00:11:49.951Z,8.01
2017-11-21T00:14:17.427Z,8.04
2017-11-21T00:16:44.889Z,7.97
2017-11-21T00:19:12.387Z,8.02
2017-11-21T00:21:39.842Z,8.17
2017-11-21T00:24:07.312Z,8.25
2017-11-21T00:26:34.771Z,8.15
2017-11-21T00:29:02.262Z,8.24
2017-11-21T00:31:29.721Z,8.10
2017-11-21T00:33:57.199Z,8.18
2017-11-21T00:36:24.654Z,8.22
2017-11-21T00:38:52.125Z,8.35
2017-11-21T00:41:19.579Z,8.26
2017-11-21T00:43:47.053Z,8.59
2017-11-21T00:46:14.506Z,8.49
2017-11-21T00:48:41.982Z,8.37
2017-11-21T00:51:09.502Z,8.42
2017-11-21T00:53:36.982Z,8.43
2017-11-21T00:56:04.478Z,8.52
2017-11-21T00:58:31.981Z,8.64
2017-11-21T01:00:59.428Z,8.47
2017-11-21T01:03:26.892Z,8.48
2017-11-21T01:05:54.344Z,8.55
2017-11-21T01:08:21.846Z,8.66
2017-11-21T01:10:49.298Z,8.56
2017-11-21T01:13:16.766Z,8.47
2017-11-21T01:15:44.230Z,8.50
2017-11-21T01:18:11.718Z,8.49
2017-11-21T01:20:39.287Z,8.49
2017-11-21T01:23:06.785Z,8.63
2017-11-21T01:25:34.234Z,8.73
2017-11-21T01:28:01.714Z,8.58
2017-11-21T01:30:29.203Z,8.57
2017-11-21T01:32:56.672Z,8.60
2017-11-21T01:35:24.202Z,8.59
2017-11-21T01:37:51.686Z,8.71
2017-11-21T01:40:19.170Z,8.77
2017-11-21T01:42:46.644Z,8.79
2017-11-21T01:45:14.142Z,8.68
2017-11-21T01:47:41.612Z,8.98
2017-11-21T01:50:09.067Z,8.93
2017-11-21T01:52:36.600Z,8.98
2017-11-21T01:55:04.064Z,8.85
2017-11-21T01:57:31.543Z,8.96
2017-11-21T01:59:59.001Z,9.12
2017-11-21T02:02:26.476Z,9.12
2017-11-21T02:04:53.959Z,9.00
2017-11-21T02:07:21.407Z,9.00
2017-11-21T02:09:48.890Z,9.01
2017-11-21T02:12:16.346Z,9.09
2017-11-21T02:14:43.816Z,8.92
2017-11-21T02:17:11.395Z,8.97
2017-11-21T02:19:38.876Z,9.06
2017-11-21T02:22:06.338Z,9.09
2017-11-21T02:24:33.804Z,9.02
2017-11-21T02:27:01.320Z,9.00
2017-11-21T02:29:28.794Z,8.99
2017-11-21T02:31:56.245Z,9.00
2017-11-21T02:34:23.732Z,8.92
2017-11-21T02:36:51.229Z,8.98
2017-11-21T02:39:18.706Z,9.22
2017-11-21T02:41:46.225Z,9.09
2017-11-21T02:44:13.812Z,9.24
2017-11-21T02:46:41.299Z,9.08
2017-11-21T02:49:08.777Z,9.24
2017-11-21T02:51:36.224Z,9.13
2017-11-21T02:54:03.704Z,9.27
2017-11-21T02:56:31.158Z,9.24
2017-11-21T02:58:58.649Z,9.38
2017-11-21T03:01:26.106Z,9.24
2017-11-21T03:03:53.582Z,9.10
2017-11-21T03:06:21.054Z,9.12
2017-11-21T03:08:48.533Z,9.30
2017-11-21T03:11:16.042Z,9.08
2017-11-21T03:13:43.522Z,9.18
2017-11-21T03:16:11.050Z,9.21
2017-11-21T03:18:38.565Z,9.09
2017-11-21T03:21:17.792Z,9.10
2017-11-21T03:23:57.087Z,9.22
2017-11-21T03:26:24.558Z,9.18
2017-11-21T03:28:52.039Z,9.17
2017-11-21T03:31:19.500Z,9.31
2017-11-21T03:33:46.986Z,9.34
2017-11-21T03:36:14.437Z,9.24
2017-11-21T03:38:41.975Z,9.38
2017-11-21T03:41:09.446Z,9.39
2017-11-21T03:43:36.949Z,9.42
2017-11-21T03:46:04.407Z,9.35
2017-11-21T03:48:31.881Z,9.24
2017-11-21T03:50:59.325Z,9.28
2017-11-21T03:53:26.806Z,9.16
2017-11-21T03:55:54.321Z,9.29
2017-11-21T03:58:21.799Z,9.16
2017-11-21T04:00:54.216Z,9.39
2017-11-21T04:03:21.676Z,9.32
2017-11-21T04:05:49.116Z,9.29
2017-11-21T04:08:16.589Z,9.20
2017-11-21T04:10:44.032Z,9.23
2017-11-21T04:13:11.472Z,9.34
2017-11-21T04:15:38.944Z,9.27
2017-11-21T04:18:06.387Z,9.34
2017-11-21T04:20:33.872Z,9.24
2017-11-21T04:23:01.329Z,9.32
2017-11-21T04:25:28.801Z,9.32
2017-11-21T04:27:56.269Z,9.32
2017-11-21T04:30:23.745Z,9.27
2017-11-21T04:32:51.289Z,9.29
2017-11-21T04:35:18.764Z,9.32
2017-11-21T04:37:46.208Z,9.34
2017-11-21T04:40:13.765Z,9.53
2017-11-21T04:42:41.300Z,9.56
2017-11-21T04:45:08.774Z,9.47
2017-11-21T04:47:36.225Z,9.37
2017-11-21T04:50:03.684Z,9.28
2017-11-21T04:52:31.145Z,9.37
2017-11-21T04:54:58.642Z,9.37
2017-11-21T04:57:26.119Z,9.51
2017-11-21T04:59:53.593Z,9.43
2017-11-21T05:02:21.074Z,9.53
2017-11-21T05:04:48.636Z,9.43
2017-11-21T05:07:16.086Z,9.55
2017-11-21T05:09:43.591Z,9.57
2017-11-21T05:12:11.094Z,9.57
2017-11-21T05:14:38.563Z,9.80
2017-11-21T05:17:06.005Z,9.54
2017-11-21T05:19:33.495Z,9.55
2017-11-21T05:22:01.074Z,9.65
2017-11-21T05:24:28.575Z,9.62
2017-11-21T05:26:56.016Z,9.59
2017-11-21T05:29:23.611Z,9.58
2017-11-21T05:31:51.163Z,9.73
2017-11-21T05:34:18.666Z,9.68
2017-11-21T05:36:46.125Z,9.57
2017-11-21T05:39:13.621Z,9.64
2017-11-21T05:41:41.103Z,9.65
2017-11-21T05:44:08.646Z,9.74
2017-11-21T05:46:36.098Z,9.64
2017-11-21T05:49:03.607Z,9.65
2017-11-21T05:51:31.064Z,9.58
2017-11-21T05:53:58.565Z,9.68
2017-11-21T05:56:26.072Z,9.61
2017-11-21T05:58:53.534Z,9.48
2017-11-21T06:01:21.010Z,9.52
2017-11-21T06:03:48.482Z,9.70
2017-11-21T06:06:15.957Z,9.67
2017-11-21T06:08:43.406Z,9.66
2017-11-21T06:11:10.882Z,9.72
2017-11-21T06:13:38.341Z,9.62
2017-11-21T06:16:05.854Z,9.87
2017-11-21T06:18:33.304Z,9.67
2017-11-21T06:21:00.806Z,9.64
2017-11-21T06:23:28.285Z,9.69
2017-11-21T06:25:56.205Z,9.65
2017-11-21T06:28:23.697Z,9.61
2017-11-21T06:30:51.237Z,9.54
2017-11-21T06:33:18.716Z,9.75
2017-11-21T06:35:46.188Z,9.66
2017-11-21T06:38:13.656Z,9.63
2017-11-21T06:40:41.113Z,9.57
2017-11-21T06:43:08.588Z,9.81
2017-11-21T06:45:36.038Z,9.61
2017-11-21T06:48:03.506Z,9.80
2017-11-21T06:50:30.960Z,9.64
2017-11-21T06:52:58.546Z,9.65
2017-11-21T06:55:25.992Z,9.53
2017-11-21T06:57:53.435Z,9.71
2017-11-21T07:00:20.931Z,9.78
2017-11-21T07:02:48.496Z,9.71
2017-11-21T07:05:15.965Z,9.50
2017-11-21T07:07:43.420Z,9.44
2017-11-21T07:10:10.885Z,9.53
2017-11-21T07:12:38.332Z,9.63
2017-11-21T07:15:05.823Z,9.41
2017-11-21T07:17:33.283Z,9.32
2017-11-21T07:20:00.827Z,9.33
2017-11-21T07:22:28.294Z,9.37
2017-11-21T07:24:55.754Z,9.29
2017-11-21T07:27:23.228Z,9.28
2017-11-21T07:29:50.725Z,9.34
2017-11-21T07:32:19.042Z,9.34
2017-11-21T07:34:46.513Z,9.29
2017-11-21T07:37:13.989Z,9.42
2017-11-21T07:39:41.463Z,9.37
2017-11-21T07:42:08.939Z,9.39
2017-11-21T07:44:36.401Z,9.32
2017-11-21T07:47:03.927Z,9.33
2017-11-21T07:49:31.393Z,9.32
2017-11-21T07:51:58.852Z,9.41
2017-11-21T07:54:26.396Z,9.47
2017-11-21T07:56:53.853Z,9.39
2017-11-21T07:59:21.404Z,9.46
2017-11-21T08:01:48.853Z,9.44
2017-11-21T08:04:16.318Z,9.48
2017-11-21T08:06:43.832Z,9.45
2017-11-21T08:09:11.313Z,9.56
2017-11-21T08:11:38.774Z,9.49
2017-11-21T08:14:06.273Z,9.51
2017-11-21T08:16:33.737Z,9.70
2017-11-21T08:19:01.231Z,9.53
2017-11-21T08:21:28.693Z,9.63
2017-11-21T08:23:56.181Z,9.53
2017-11-21T08:26:23.673Z,9.70
2017-11-21T08:28:51.123Z,9.65
2017-11-21T08:31:18.605Z,9.58
2017-11-21T08:33:46.063Z,9.51
2017-11-21T08:36:13.541Z,9.57
2017-11-21T08:38:40.999Z,9.54
2017-11-21T08:41:08.464Z,9.56
2017-11-21T08:43:36.042Z,9.54
2017-11-21T08:46:03.525Z,9.57
2017-11-21T08:48:30.976Z,9.59
2017-11-21T08:50:58.470Z,9.56
2017-11-21T08:53:25.960Z,9.61
2017-11-21T08:55:53.415Z,9.52
2017-11-21T08:58:20.932Z,9.61
2017-11-21T09:00:48.385Z,9.69
2017-11-21T09:03:15.856Z,9.50
2017-11-21T09:05:43.318Z,9.54
2017-11-21T09:08:10.818Z,9.59
2017-11-21T09:10:38.294Z,9.66
2017-11-21T09:13:05.775Z,9.58
2017-11-21T09:15:33.237Z,9.68
2017-11-21T09:18:00.735Z,9.71
2017-11-21T09:20:28.244Z,9.68
2017-11-21T09:22:55.729Z,9.69
2017-11-21T09:25:23.208Z,9.61
2017-11-21T09:27:50.674Z,9.67
2017-11-21T09:30:18.144Z,9.64
2017-11-21T09:32:45.609Z,9.64
2017-11-21T09:35:13.101Z,9.61
2017-11-21T09:37:40.620Z,9.64
2017-11-21T09:40:08.091Z,9.74
2017-11-21T09:42:35.626Z,9.79
2017-11-21T09:45:03.117Z,9.81
2017-11-21T09:47:30.572Z,9.66
2017-11-21T09:49:58.045Z,9.74
2017-11-21T09:52:25.553Z,9.74
2017-11-21T09:54:53.002Z,9.88
2017-11-21T09:57:20.518Z,10.03
2017-11-21T09:59:47.974Z,9.80
2017-11-21T10:02:15.461Z,9.89
2017-11-21T10:04:42.908Z,9.89
2017-11-21T10:07:10.378Z,9.85
2017-11-21T10:09:37.834Z,9.94
2017-11-21T10:12:05.311Z,9.95
2017-11-21T10:14:32.760Z,9.96
2017-11-21T10:17:00.310Z,10.03
2017-11-21T10:19:27.792Z,9.98
2017-11-21T10:21:55.249Z,10.05
2017-11-21T10:24:22.729Z,10.17
2017-11-21T10:26:50.180Z,10.08
2017-11-21T10:29:17.666Z,10.12
2017-11-21T10:31:45.134Z,10.29
2017-11-21T10:34:12.609Z,10.23
2017-11-21T10:36:40.173Z,10.26
2017-11-21T10:39:07.772Z,10.33
2017-11-21T10:41:35.225Z,10.41
2017-11-21T10:44:02.719Z,10.44
2017-11-21T10:46:30.184Z,10.35
2017-11-21T10:48:57.636Z,10.37
2017-11-21T10:51:25.109Z,10.27
2017-11-21T10:53:52.588Z,10.34
2017-11-21T10:56:20.121Z,10.33
2017-11-21T10:58:47.584Z,10.36
2017-11-21T11:01:15.040Z,10.42
2017-11-21T11:03:42.536Z,10.36
2017-11-21T11:06:10.024Z,10.44
2017-11-21T11:08:37.476Z,10.45
2017-11-21T11:11:04.972Z,10.38
2017-11-21T11:13:32.454Z,10.42
2017-11-21T11:15:59.977Z,10.48
2017-11-21T11:18:27.455Z,10.49
2017-11-21T11:20:54.913Z,10.51
2017-11-21T11:23:22.434Z,10.65
2017-11-21T11:25:49.891Z,10.78
2017-11-21T11:28:17.370Z,10.59
2017-11-21T11:30:44.831Z,10.69
2017-11-21T11:33:12.321Z,10.72
2017-11-21T11:35:39.784Z,10.69
2017-11-21T11:38:07.270Z,10.59
2017-11-21T11:40:34.721Z,10.68
2017-11-21T11:43:02.229Z,10.62
2017-11-21T11:45:30.169Z,10.57
2017-11-21T11:47:57.652Z,10.54
2017-11-21T11:50:25.189Z,10.64
2017-11-21T11:52:52.668Z,10.55
2017-11-21T11:55:20.155Z,10.60
2017-11-21T11:57:47.613Z,10.80
2017-11-21T12:00:15.097Z,10.91
2017-11-21T12:02:42.554Z,10.73
2017-11-21T12:05:10.040Z,10.63
2017-11-21T12:07:37.506Z,10.60
2017-11-21T12:10:04.990Z,10.72
2017-11-21T12:12:32.454Z,10.68
2017-11-21T12:14:59.986Z,10.72
2017-11-21T12:17:27.976Z,10.60
2017-11-21T12:19:55.482Z,10.57
2017-11-21T12:22:22.956Z,10.63
2017-11-21T12:24:50.409Z,10.62
2017-11-21T12:27:17.899Z,10.62
2017-11-21T12:29:45.348Z,10.60
2017-11-21T12:32:12.824Z,10.79
2017-11-21T12:34:40.325Z,10.63
2017-11-21T12:37:07.788Z,10.63
2017-11-21T12:39:35.246Z,10.81
2017-11-21T12:42:02.717Z,10.72
2017-11-21T12:44:30.183Z,10.76
2017-11-21T12:46:57.660Z,10.81
2017-11-21T12:49:25.160Z,10.77
2017-11-21T12:51:52.627Z,10.80
2017-11-21T12:54:20.082Z,10.88
2017-11-21T12:56:47.636Z,11.06
2017-11-21T12:59:15.196Z,10.80
2017-11-21T13:01:42.650Z,10.86
2017-11-21T13:04:10.134Z,10.83
2017-11-21T13:06:37.674Z,10.81
2017-11-21T13:09:05.236Z,10.87
2017-11-21T13:11:32.741Z,10.82
2017-11-21T13:14:00.218Z,10.93
2017-11-21T13:16:27.938Z,10.92
2017-11-21T13:18:55.420Z,10.83
2017-11-21T13:21:22.878Z,10.92
2017-11-21T13:23:50.361Z,10.88
2017-11-21T13:26:17.863Z,11.02
2017-11-21T13:28:45.341Z,10.94
2017-11-21T13:31:12.806Z,11.03
2017-11-21T13:33:40.291Z,10.99
2017-11-21T13:36:07.878Z,11.14
2017-11-21T13:38:35.352Z,11.28
2017-11-21T13:41:02.852Z,11.13
2017-11-21T13:43:30.351Z,11.06
2017-11-21T13:45:57.866Z,10.93
2017-11-21T13:48:25.326Z,10.89
2017-11-21T13:50:52.843Z,10.93
2017-11-21T13:53:20.310Z,10.97
2017-11-21T13:55:47.807Z,11.02
2017-11-21T13:58:15.289Z,10.96
2017-11-21T14:00:42.795Z,10.86
2017-11-21T14:03:10.246Z,10.86
2017-11-21T14:05:37.734Z,10.82
2017-11-21T14:08:05.230Z,10.93
2017-11-21T14:10:33.445Z,10.83
2017-11-21T14:13:00.949Z,10.90
2017-11-21T14:15:28.410Z,10.81
2017-11-21T14:17:55.890Z,10.83
2017-11-21T14:20:23.600Z,10.90
2017-11-21T14:22:52.088Z,10.82
2017-11-21T14:25:19.554Z,10.88
2017-11-21T14:27:47.037Z,10.77
2017-11-21T14:30:14.489Z,10.90
2017-11-21T14:32:42.047Z,10.89
2017-11-21T14:35:09.519Z,10.77
2017-11-21T14:37:37.023Z,10.82
2017-11-21T14:40:04.515Z,10.72
2017-11-21T14:42:31.988Z,10.72
2017-11-21T14:44:59.461Z,10.65
2017-11-21T14:47:26.917Z,10.84
2017-11-21T14:49:54.412Z,10.84
2017-11-21T14:52:21.872Z,10.85
2017-11-21T14:54:49.331Z,10.87
2017-11-21T14:57:16.823Z,10.76
2017-11-21T14:59:44.284Z,10.72
2017-11-21T15:02:11.758Z,10.71
2017-11-21T15:04:39.246Z,10.74
2017-11-21T15:07:06.772Z,10.77
2017-11-21T15:09:34.278Z,10.73
2017-11-21T15:12:01.864Z,10.65
2017-11-21T15:14:29.357Z,10.67
2017-11-21T15:16:56.885Z,10.92
2017-11-21T15:19:24.360Z,10.71
2017-11-21T15:21:51.849Z,10.51
2017-11-21T15:24:19.309Z,10.48
2017-11-21T15:26:46.789Z,10.50
2017-11-21T15:29:14.278Z,10.46
2017-11-21T15:31:41.730Z,10.49
2017-11-21T15:34:09.256Z,10.34
2017-11-21T15:36:36.720Z,10.40
2017-11-21T15:39:04.215Z,10.39
2017-11-21T15:41:31.702Z,10.27
2017-11-21T15:43:59.186Z,10.25
2017-11-21T15:46:26.797Z,10.59
2017-11-21T15:48:54.273Z,10.41
2017-11-21T15:51:21.720Z,10.41
2017-11-21T15:53:49.309Z,10.38
2017-11-21T15:56:16.784Z,10.41
2017-11-21T15:58:44.248Z,10.18
2017-11-21T16:01:11.790Z,10.16
2017-11-21T16:03:39.338Z,10.47
2017-11-21T16:06:06.910Z,10.35
2017-11-21T16:08:34.435Z,10.30
2017-11-21T16:11:01.921Z,10.42
2017-11-21T16:13:29.573Z,10.18
2017-11-21T16:15:57.339Z,10.46
2017-11-21T16:18:24.846Z,10.26
2017-11-21T16:20:52.334Z,10.16
2017-11-21T16:23:19.817Z,10.01
2017-11-21T16:25:47.283Z,10.12
2017-11-21T16:28:14.758Z,10.15
2017-11-21T16:30:42.295Z,10.18
2017-11-21T16:33:09.806Z,10.46
2017-11-21T16:35:37.252Z,10.28
2017-11-21T16:38:04.725Z,10.22
2017-11-21T16:40:32.186Z,10.16
2017-11-21T16:42:59.674Z,10.03
2017-11-21T16:45:27.134Z,10.10
2017-11-21T16:47:54.613Z,10.17
2017-11-21T16:50:22.080Z,10.18
2017-11-21T16:52:49.552Z,10.26
2017-11-21T16:55:17.005Z,10.21
2017-11-21T16:57:44.515Z,10.18
2017-11-21T17:00:11.979Z,10.23
2017-11-21T17:02:39.445Z,10.37
2017-11-21T17:05:06.921Z,10.27
2017-11-21T17:07:34.391Z,10.14
2017-11-21T17:10:01.908Z,10.00
2017-11-21T17:12:29.375Z,10.18
2017-11-21T17:14:56.859Z,10.11
2017-11-21T17:17:24.321Z,10.26
2017-11-21T17:19:51.809Z,10.30
2017-11-21T17:22:19.336Z,10.17
2017-11-21T17:24:46.853Z,10.16
2017-11-21T17:27:14.320Z,10.18
2017-11-21T17:29:41.777Z,10.17
2017-11-21T17:32:09.253Z,10.14
2017-11-21T17:34:36.777Z,9.97
2017-11-21T17:37:04.332Z,10.14
2017-11-21T17:39:31.804Z,9.93
2017-11-21T17:41:59.353Z,10.23
2017-11-21T17:44:26.800Z,9.86
2017-11-21T17:46:54.273Z,9.93
2017-11-21T17:49:21.743Z,9.82
2017-11-21T17:51:49.219Z,9.88
2017-11-21T17:54:16.726Z,9.79
2017-11-21T17:56:44.204Z,9.75
2017-11-21T17:59:11.675Z,9.93
2017-11-21T18:01:39.148Z,9.92
2017-11-21T18:04:06.638Z,9.69
2017-11-21T18:06:34.095Z,9.76
2017-11-21T18:09:01.572Z,9.67
2017-11-21T18:11:29.080Z,9.76
2017-11-21T18:13:56.564Z,9.95
2017-11-21T18:16:24.026Z,9.70
2017-11-21T18:18:51.502Z,9.72
2017-11-21T18:21:18.952Z,9.74
2017-11-21T18:23:46.445Z,9.76
2017-11-21T18:26:13.902Z,9.71
2017-11-21T18:28:41.373Z,9.73
2017-11-21T18:31:08.834Z,9.68
2017-11-21T18:33:36.391Z,9.73
2017-11-21T18:36:03.883Z,9.75
2017-11-21T18:38:31.332Z,9.71
2017-11-21T18:40:58.821Z,9.83
2017-11-21T18:43:26.364Z,9.82
2017-11-21T18:45:53.838Z,9.74
2017-11-21T18:48:21.338Z,9.72
2017-11-21T18:50:48.814Z,9.75
2017-11-21T18:53:16.282Z,9.83
2017-11-21T18:55:43.758Z,9.76
2017-11-21T18:58:11.212Z,9.81
2017-11-21T19:00:38.703Z,9.81
2017-11-21T19:03:06.163Z,9.89
2017-11-21T19:05:33.630Z,9.76
2017-11-21T19:08:01.105Z,9.77
2017-11-21T19:10:28.561Z,9.77
2017-11-21T19:12:56.038Z,9.79
2017-11-21T19:15:23.509Z,9.78
2017-11-21T19:17:50.973Z,9.84
2017-11-21T19:20:18.421Z,9.84
2017-11-21T19:22:45.898Z,9.87
2017-11-21T19:25:13.362Z,9.80
2017-11-21T19:27:40.834Z,9.84
2017-11-21T19:30:08.298Z,10.04
2017-11-21T19:32:35.771Z,9.95
2017-11-21T19:35:03.314Z,9.84
2017-11-21T19:37:30.799Z,9.76
2017-11-21T19:39:58.285Z,9.83
2017-11-21T19:42:25.766Z,9.72
2017-11-21T19:44:53.223Z,9.82
2017-11-21T19:47:20.708Z,9.83
2017-11-21T19:49:48.174Z,9.83
2017-11-21T19:52:15.628Z,9.78
2017-11-21T19:54:43.141Z,9.85
2017-11-21T19:57:10.598Z,9.73
2017-11-21T19:59:38.093Z,9.76
2017-11-21T20:02:05.561Z,9.79
2017-11-21T20:04:33.055Z,9.72
2017-11-21T20:07:00.518Z,9.80
2017-11-21T20:09:27.992Z,9.78
2017-11-21T20:11:55.463Z,9.81
2017-11-21T20:14:22.956Z,9.79
2017-11-21T20:16:50.409Z,9.76
2017-11-21T20:19:18.008Z,9.91
2017-11-21T20:21:45.467Z,9.86
2017-11-21T20:24:12.951Z,9.88
2017-11-21T20:26:40.421Z,9.86
2017-11-21T20:29:07.888Z,9.91
2017-11-21T20:31:35.346Z,9.89
2017-11-21T20:34:02.826Z,9.87
2017-11-21T20:36:30.294Z,9.84
2017-11-21T20:38:57.774Z,9.92
2017-11-21T20:41:25.314Z,9.83
2017-11-21T20:43:52.798Z,9.82
2017-11-21T20:46:20.317Z,9.93
2017-11-21T20:48:47.810Z,9.80
2017-11-21T20:51:15.263Z,9.88
2017-11-21T20:53:42.704Z,9.63
2017-11-21T20:56:10.179Z,9.69
2017-11-21T20:58:37.641Z,9.88
2017-11-21T21:01:05.161Z,9.73
2017-11-21T21:03:32.670Z,9.71
2017-11-21T21:06:00.173Z,9.80
2017-11-21T21:08:27.760Z,9.67
2017-11-21T21:10:55.302Z,9.67
2017-11-21T21:13:22.770Z,9.65
2017-11-21T21:15:50.252Z,9.73
2017-11-21T21:18:17.723Z,9.70
2017-11-21T21:20:45.214Z,9.77
2017-11-21T21:23:12.695Z,9.70
2017-11-21T21:25:40.194Z,9.66
2017-11-21T21:28:07.657Z,9.60
2017-11-21T21:30:35.155Z,9.68
2017-11-21T21:33:02.647Z,9.61
2017-11-21T21:35:30.473Z,9.63
2017-11-21T21:37:57.941Z,9.70
2017-11-21T21:40:25.497Z,9.66
2017-11-21T21:42:52.973Z,9.71
2017-11-21T21:45:20.463Z,9.80
2017-11-21T21:47:47.974Z,9.65
2017-11-21T21:50:15.461Z,9.63
2017-11-21T21:52:42.930Z,9.64
2017-11-21T21:55:10.415Z,9.62
2017-11-21T21:57:37.877Z,9.67
2017-11-21T22:00:05.345Z,9.76
2017-11-21T22:02:32.806Z,9.71
2017-11-21T22:05:00.292Z,9.70
2017-11-21T22:07:27.818Z,9.76
2017-11-21T22:09:55.294Z,9.78
2017-11-21T22:12:22.770Z,9.76
2017-11-21T22:14:50.271Z,9.64
2017-11-21T22:17:17.733Z,9.83
2017-11-21T22:19:45.279Z,9.87
2017-11-21T22:22:12.738Z,9.85
2017-11-21T22:24:40.212Z,9.84
2017-11-21T22:27:07.777Z,9.78
2017-11-21T22:29:35.256Z,9.79
2017-11-21T22:32:02.761Z,9.69
2017-11-21T22:34:30.225Z,9.77
2017-11-21T22:36:57.819Z,9.73
2017-11-21T22:39:25.263Z,9.75
2017-11-21T22:41:52.731Z,9.71
2017-11-21T22:44:20.181Z,9.76
2017-11-21T22:46:47.653Z,9.77
2017-11-21T22:49:15.188Z,9.85
2017-11-21T22:51:42.657Z,9.80
2017-11-21T22:54:10.109Z,9.88
2017-11-21T22:56:37.685Z,9.83
2017-11-21T22:59:05.237Z,9.82
2017-11-21T23:01:32.709Z,9.80
2017-11-21T23:04:00.198Z,9.83
2017-11-21T23:06:27.689Z,9.86
2017-11-21T23:08:55.163Z,9.78
2017-11-21T23:11:22.633Z,9.76
2017-11-21T23:13:50.102Z,9.79
2017-11-21T23:16:17.566Z,9.74
2017-11-21T23:18:45.184Z,9.83
2017-11-21T23:21:12.632Z,9.74
2017-11-21T23:23:40.210Z,9.86
2017-11-21T23:26:07.656Z,9.98
2017-11-21T23:28:35.214Z,10.01
2017-11-21T23:31:02.664Z,9.93
2017-11-21T23:33:30.157Z,9.88
2017-11-21T23:35:57.605Z,9.89
2017-11-21T23:38:25.089Z,9.76
2017-11-21T23:40:52.560Z,9.77
2017-11-21T23:43:20.018Z,9.95
2017-11-21T23:45:47.493Z,9.84
2017-11-21T23:48:14.977Z,9.81
2017-11-21T23:50:42.444Z,9.98
2017-11-21T23:53:09.916Z,9.92
2017-11-21T23:55:37.396Z,10.01
2017-11-21T23:58:04.851Z,9.97
